createdAt,value
2018-09-03T00:02:20.850Z,101393.77
2018-09-03T00:04:50.556Z,101389.78
2018-09-03T00:07:19.980Z,101395.58
2018-09-03T00:09:50.529Z,101393.31
2018-09-03T00:12:21.025Z,101388.38
2018-09-03T00:14:51.428Z,101394.53
2018-09-03T00:17:20.855Z,101394.02
2018-09-03T00:19:51.709Z,101391.50
2018-09-03T00:22:21.653Z,101387.36
2018-09-03T00:24:50.957Z,101384.48
2018-09-03T00:27:20.377Z,101378.16
2018-09-03T00:29:49.748Z,101373.86
2018-09-03T00:32:23.385Z,101373.88
2018-09-03T00:34:57.957Z,101366.36
2018-09-03T00:38:35.444Z,101374.16
2018-09-03T00:41:09.165Z,101373.30
2018-09-03T00:43:42.877Z,101371.78
2018-09-03T00:46:16.520Z,101374.45
2018-09-03T00:48:44.941Z,101367.52
2018-09-03T00:51:13.368Z,101377.30
2018-09-03T00:53:41.771Z,101373.84
2018-09-03T00:56:10.136Z,101378.50
2018-09-03T00:58:38.477Z,101378.16
2018-09-03T01:01:06.949Z,101380.99
2018-09-03T01:03:35.305Z,101380.78
2018-09-03T01:06:03.660Z,101374.83
2018-09-03T01:08:32.057Z,101378.45
2018-09-03T01:11:00.391Z,101378.80
2018-09-03T01:13:29.137Z,101391.62
2018-09-03T01:15:58.260Z,101388.64
2018-09-03T01:18:27.272Z,101387.62
2018-09-03T01:20:56.320Z,101394.75
2018-09-03T01:23:24.645Z,101401.70
2018-09-03T01:25:53.585Z,101399.39
2018-09-03T01:28:22.065Z,101402.05
2018-09-03T01:30:51.466Z,101405.38
2018-09-03T01:33:19.786Z,101402.72
2018-09-03T01:35:49.643Z,101401.01
2018-09-03T01:38:18.160Z,101405.34
2018-09-03T01:40:46.489Z,101406.67
2018-09-03T01:43:14.809Z,101406.48
2018-09-03T01:45:43.154Z,101399.98
2018-09-03T01:48:11.561Z,101400.84
2018-09-03T01:50:39.905Z,101395.61
2018-09-03T01:53:08.253Z,101392.77
2018-09-03T01:55:37.614Z,101397.27
2018-09-03T01:58:06.124Z,101389.60
2018-09-03T02:00:35.517Z,101392.30
2018-09-03T02:03:03.848Z,101388.36
2018-09-03T02:05:32.200Z,101394.17
2018-09-03T02:08:00.590Z,101390.34
2018-09-03T02:10:29.084Z,101390.97
2018-09-03T02:12:58.009Z,101384.84
2018-09-03T02:15:27.528Z,101395.02
2018-09-03T02:17:56.360Z,101391.62
2018-09-03T02:20:24.713Z,101396.59
2018-09-03T02:22:53.041Z,101384.66
2018-09-03T02:25:22.195Z,101392.25
2018-09-03T02:27:51.141Z,101384.66
2018-09-03T02:30:20.595Z,101382.96
2018-09-03T02:32:50.008Z,101381.28
2018-09-03T02:35:18.329Z,101383.08
2018-09-03T02:37:46.693Z,101377.55
2018-09-03T02:40:15.022Z,101376.21
2018-09-03T02:42:43.433Z,101375.59
2018-09-03T02:45:11.895Z,101379.52
2018-09-03T02:47:40.348Z,101377.81
2018-09-03T02:50:09.127Z,101376.56
2018-09-03T02:52:38.497Z,101378.38
2018-09-03T02:55:07.212Z,101369.25
2018-09-03T02:57:35.548Z,101367.84
2018-09-03T03:00:03.936Z,101361.15
2018-09-03T03:02:32.257Z,101353.94
2018-09-03T03:05:01.518Z,101348.12
2018-09-03T03:07:29.872Z,101355.65
2018-09-03T03:09:58.989Z,101352.22
2018-09-03T03:12:28.648Z,101348.18
2018-09-03T03:14:59.021Z,101348.23
2018-09-03T03:17:27.505Z,101357.55
2018-09-03T03:19:55.982Z,101356.81
2018-09-03T03:22:24.300Z,101354.16
2018-09-03T03:24:52.634Z,101348.73
2018-09-03T03:27:21.817Z,101350.16
2018-09-03T03:29:51.037Z,101353.75
2018-09-03T03:32:20.578Z,101352.03
2018-09-03T03:34:50.052Z,101348.44
2018-09-03T03:37:18.396Z,101344.53
2018-09-03T03:39:47.682Z,101352.52
2018-09-03T03:42:16.089Z,101349.31
2018-09-03T03:44:44.427Z,101341.81
2018-09-03T03:47:12.801Z,101342.52
2018-09-03T03:49:41.225Z,101336.48
2018-09-03T03:52:09.553Z,101339.80
2018-09-03T03:54:37.926Z,101333.14
2018-09-03T03:57:06.332Z,101334.09
2018-09-03T03:59:34.733Z,101335.45
2018-09-03T04:02:04.508Z,101332.70
2018-09-03T04:04:33.903Z,101327.42
2018-09-03T04:07:03.135Z,101324.64
2018-09-03T04:09:32.457Z,101315.23
2018-09-03T04:12:01.711Z,101328.48
2018-09-03T04:14:30.998Z,101317.70
2018-09-03T04:17:00.360Z,101319.80
2018-09-03T04:19:29.000Z,101320.80
2018-09-03T04:21:59.499Z,101323.58
2018-09-03T04:24:28.497Z,101326.13
2018-09-03T04:26:58.817Z,101325.92
2018-09-03T04:29:29.077Z,101323.33
2018-09-03T04:31:57.476Z,101322.05
2018-09-03T04:34:27.417Z,101327.05
2018-09-03T04:36:57.268Z,101325.98
2018-09-03T04:39:25.602Z,101333.16
2018-09-03T04:41:54.108Z,101332.61
2018-09-03T04:44:22.491Z,101334.25
2018-09-03T04:46:52.731Z,101336.25
2018-09-03T04:49:22.251Z,101343.08
2018-09-03T04:51:52.624Z,101337.95
2018-09-03T04:54:22.522Z,101342.48
2018-09-03T04:56:52.097Z,101341.20
2018-09-03T04:59:22.021Z,101340.16
2018-09-03T05:01:50.428Z,101340.16
2018-09-03T05:04:18.811Z,101344.49
2018-09-03T05:06:48.059Z,101339.91
2018-09-03T05:09:16.475Z,101340.03
2018-09-03T05:11:45.913Z,101343.33
2018-09-03T05:14:15.112Z,101336.94
2018-09-03T05:16:44.448Z,101338.02
2018-09-03T05:19:13.682Z,101344.53
2018-09-03T05:21:42.884Z,101348.55
2018-09-03T05:24:11.301Z,101343.69
2018-09-03T05:26:39.662Z,101345.89
2018-09-03T05:29:08.026Z,101345.61
2018-09-03T05:31:38.454Z,101345.61
2018-09-03T05:34:07.829Z,101344.78
2018-09-03T05:36:37.502Z,101339.02
2018-09-03T05:39:08.579Z,101340.02
2018-09-03T05:41:37.844Z,101344.00
2018-09-03T05:44:06.316Z,101353.99
2018-09-03T05:46:35.893Z,101356.00
2018-09-03T05:49:05.254Z,101361.44
2018-09-03T05:51:34.599Z,101362.80
2018-09-03T05:54:02.967Z,101361.99
2018-09-03T05:56:31.340Z,101355.30
2018-09-03T05:59:00.634Z,101351.52
2018-09-03T06:01:30.002Z,101358.05
2018-09-03T06:03:59.157Z,101359.02
2018-09-03T06:06:29.273Z,101361.58
2018-09-03T06:08:58.419Z,101365.80
2018-09-03T06:11:27.861Z,101360.02
2018-09-03T06:13:57.589Z,101365.19
2018-09-03T06:16:25.990Z,101365.95
2018-09-03T06:18:54.348Z,101373.94
2018-09-03T06:21:22.769Z,101370.20
2018-09-03T06:23:52.440Z,101365.03
2018-09-03T06:26:21.272Z,101367.19
2018-09-03T06:28:52.266Z,101362.26
2018-09-03T06:31:23.140Z,101364.91
2018-09-03T06:33:52.824Z,101364.89
2018-09-03T06:36:22.198Z,101369.69
2018-09-03T06:38:51.505Z,101368.43
2018-09-03T06:41:20.475Z,101362.16
2018-09-03T06:43:48.817Z,101361.95
2018-09-03T06:46:17.209Z,101361.42
2018-09-03T06:48:45.532Z,101361.53
2018-09-03T06:51:14.757Z,101362.23
2018-09-03T06:53:43.104Z,101360.58
2018-09-03T06:56:11.441Z,101355.32
2018-09-03T06:58:39.777Z,101352.77
2018-09-03T07:01:08.155Z,101352.53
2018-09-03T07:03:36.550Z,101352.60
2018-09-03T07:06:05.046Z,101349.73
2018-09-03T07:08:33.375Z,101351.15
2018-09-03T07:11:01.737Z,101349.51
2018-09-03T07:13:30.085Z,101352.52
2018-09-03T07:15:59.495Z,101351.50
2018-09-03T07:18:28.760Z,101350.84
2018-09-03T07:20:57.656Z,101354.20
2018-09-03T07:23:26.577Z,101349.89
2018-09-03T07:25:54.904Z,101355.23
2018-09-03T07:28:23.390Z,101358.75
2018-09-03T07:30:52.339Z,101357.94
2018-09-03T07:33:21.604Z,101361.60
2018-09-03T07:35:53.024Z,101363.41
2018-09-03T07:38:22.537Z,101361.58
2018-09-03T07:40:52.565Z,101360.09
2018-09-03T07:43:23.130Z,101356.75
2018-09-03T07:45:53.057Z,101357.99
2018-09-03T07:48:23.017Z,101357.17
2018-09-03T07:50:52.032Z,101357.34
2018-09-03T07:53:20.390Z,101349.58
2018-09-03T07:55:49.831Z,101352.24
2018-09-03T07:58:18.433Z,101349.50
2018-09-03T08:00:46.911Z,101348.96
2018-09-03T08:03:15.254Z,101342.18
2018-09-03T08:05:43.584Z,101345.80
2018-09-03T08:08:12.006Z,101329.57
2018-09-03T08:10:40.393Z,101335.32
2018-09-03T08:13:10.189Z,101331.69
2018-09-03T08:15:39.554Z,101326.22
2018-09-03T08:18:07.897Z,101324.11
2018-09-03T08:20:36.332Z,101332.16
2018-09-03T08:23:04.661Z,101327.83
2018-09-03T08:25:34.010Z,101319.34
2018-09-03T08:28:02.342Z,101316.67
2018-09-03T08:30:30.781Z,101318.84
2018-09-03T08:32:59.848Z,101321.13
2018-09-03T08:35:29.340Z,101317.27
2018-09-03T08:37:58.889Z,101312.39
2018-09-03T08:40:27.677Z,101312.05
2018-09-03T08:42:56.131Z,101312.88
2018-09-03T08:45:24.542Z,101307.52
2018-09-03T08:47:53.861Z,101309.31
2018-09-03T08:50:24.686Z,101297.75
2018-09-03T08:52:54.102Z,101299.33
2018-09-03T08:55:22.757Z,101294.24
2018-09-03T08:57:52.566Z,101287.22
2018-09-03T09:00:22.930Z,101288.67
2018-09-03T09:02:52.488Z,101298.70
2018-09-03T09:05:21.836Z,101284.81
2018-09-03T09:07:52.251Z,101290.80
2018-09-03T09:10:21.352Z,101288.83
2018-09-03T09:12:50.710Z,101290.58
2018-09-03T09:15:19.752Z,101280.76
2018-09-03T09:17:48.482Z,101281.15
2018-09-03T09:20:16.812Z,101278.66
2018-09-03T09:22:45.258Z,101277.44
2018-09-03T09:25:14.554Z,101278.91
2018-09-03T09:27:43.860Z,101274.94
2018-09-03T09:30:12.581Z,101272.97
2018-09-03T09:32:41.018Z,101269.88
2018-09-03T09:35:09.445Z,101273.95
2018-09-03T09:37:37.771Z,101270.40
2018-09-03T09:40:06.110Z,101259.69
2018-09-03T09:42:34.518Z,101260.72
2018-09-03T09:45:04.299Z,101251.80
2018-09-03T09:47:32.648Z,101256.19
2018-09-03T09:50:01.168Z,101252.36
2018-09-03T09:52:29.663Z,101254.00
2018-09-03T09:54:58.568Z,101252.95
2018-09-03T09:57:28.493Z,101249.49
2018-09-03T09:59:57.837Z,101243.13
2018-09-03T10:02:26.726Z,101238.82
2018-09-03T10:04:55.113Z,101236.46
2018-09-03T10:07:24.500Z,101235.47
2018-09-03T10:09:52.914Z,101237.53
2018-09-03T10:12:27.378Z,101235.88
2018-09-03T10:14:55.836Z,101232.66
2018-09-03T10:17:25.644Z,101239.22
2018-09-03T10:19:54.100Z,101231.60
2018-09-03T10:22:23.093Z,101233.30
2018-09-03T10:24:52.127Z,101235.48
2018-09-03T10:27:20.901Z,101233.92
2018-09-03T10:29:49.805Z,101228.14
2018-09-03T10:32:18.189Z,101219.47
2018-09-03T10:34:46.729Z,101220.58
2018-09-03T10:37:15.061Z,101214.46
2018-09-03T10:39:44.400Z,101218.62
2018-09-03T10:42:12.755Z,101219.58
2018-09-03T10:44:41.090Z,101207.89
2018-09-03T10:47:09.500Z,101212.04
2018-09-03T10:49:37.972Z,101200.05
2018-09-03T10:52:06.329Z,101217.41
2018-09-03T10:54:34.668Z,101203.05
2018-09-03T10:57:03.084Z,101200.90
2018-09-03T10:59:31.425Z,101199.13
2018-09-03T11:01:59.869Z,101189.15
2018-09-03T11:04:29.161Z,101195.89
2018-09-03T11:06:58.272Z,101197.16
2018-09-03T11:09:27.646Z,101194.72
2018-09-03T11:11:56.715Z,101189.14
2018-09-03T11:14:25.050Z,101188.30
2018-09-03T11:16:54.325Z,101190.51
2018-09-03T11:19:27.450Z,101185.58
2018-09-03T11:21:55.830Z,101184.30
2018-09-03T11:24:24.353Z,101167.80
2018-09-03T11:26:53.223Z,101168.17
2018-09-03T11:29:22.838Z,101175.73
2018-09-03T11:31:52.641Z,101166.98
2018-09-03T11:34:22.740Z,101159.88
2018-09-03T11:36:53.394Z,101163.00
2018-09-03T11:39:23.018Z,101160.77
2018-09-03T11:41:53.089Z,101157.84
2018-09-03T11:44:22.204Z,101159.47
2018-09-03T11:46:51.010Z,101162.03
2018-09-03T11:49:19.675Z,101158.56
2018-09-03T11:51:50.586Z,101159.05
2018-09-03T11:54:20.257Z,101158.02
2018-09-03T11:56:48.801Z,101137.65
2018-09-03T11:59:17.171Z,101136.32
2018-09-03T12:01:45.694Z,101140.11
2018-09-03T12:04:14.106Z,101144.44
2018-09-03T12:06:43.584Z,101134.26
2018-09-03T12:09:12.888Z,101128.13
2018-09-03T12:11:41.348Z,101126.47
2018-09-03T12:14:21.317Z,101132.39
2018-09-03T12:16:50.415Z,101122.75
2018-09-03T12:19:18.741Z,101115.30
2018-09-03T12:21:47.117Z,101120.20
2018-09-03T12:24:16.359Z,101108.67
2018-09-03T12:26:44.696Z,101108.97
2018-09-03T12:29:14.013Z,101108.64
2018-09-03T12:31:42.343Z,101106.08
2018-09-03T12:34:10.714Z,101105.25
2018-09-03T12:36:40.072Z,101104.94
2018-09-03T12:39:10.806Z,101103.88
2018-09-03T12:41:40.167Z,101108.14
2018-09-03T12:44:09.570Z,101100.72
2018-09-03T12:46:37.895Z,101094.14
2018-09-03T12:49:06.313Z,101103.62
2018-09-03T12:51:35.775Z,101092.88
2018-09-03T12:54:04.140Z,101091.86
2018-09-03T12:56:33.412Z,101091.47
2018-09-03T12:59:02.752Z,101088.55
2018-09-03T13:01:31.097Z,101087.86
2018-09-03T13:03:59.432Z,101081.53
2018-09-03T13:06:27.865Z,101082.83
2018-09-03T13:08:57.358Z,101080.78
2018-09-03T13:11:25.725Z,101068.90
2018-09-03T13:13:55.334Z,101073.74
2018-09-03T13:16:23.657Z,101070.16
2018-09-03T13:18:52.909Z,101066.95
2018-09-03T13:21:22.476Z,101065.30
2018-09-03T13:23:52.896Z,101073.39
2018-09-03T13:26:22.218Z,101064.55
2018-09-03T13:28:52.048Z,101061.69
2018-09-03T13:31:21.820Z,101056.07
2018-09-03T13:33:51.686Z,101059.46
2018-09-03T13:36:21.282Z,101057.27
2018-09-03T13:38:50.734Z,101053.47
2018-09-03T13:41:19.772Z,101061.56
2018-09-03T13:43:48.173Z,101054.11
2018-09-03T13:46:16.598Z,101048.84
2018-09-03T13:48:45.458Z,101049.58
2018-09-03T13:51:13.933Z,101047.47
2018-09-03T13:53:42.273Z,101039.21
2018-09-03T13:56:10.657Z,101040.66
2018-09-03T13:58:38.973Z,101034.05
2018-09-03T14:01:08.359Z,101039.33
2018-09-03T14:03:37.768Z,101041.05
2018-09-03T14:06:07.030Z,101038.66
2018-09-03T14:08:36.244Z,101037.59
2018-09-03T14:11:05.530Z,101038.10
2018-09-03T14:13:34.964Z,101033.16
2018-09-03T14:16:04.297Z,101034.03
2018-09-03T14:18:33.585Z,101021.98
2018-09-03T14:21:02.829Z,101027.02
2018-09-03T14:23:31.156Z,101013.91
2018-09-03T14:26:00.484Z,101020.06
2018-09-03T14:28:29.523Z,101021.46
2018-09-03T14:30:58.861Z,101020.56
2018-09-03T14:33:28.911Z,101014.59
2018-09-03T14:35:59.597Z,101018.34
2018-09-03T14:38:29.917Z,101013.26
2018-09-03T14:40:58.945Z,101010.00
2018-09-03T14:43:29.292Z,101017.04
2018-09-03T14:45:58.761Z,101009.38
2018-09-03T14:48:29.278Z,101009.53
2018-09-03T14:50:58.804Z,101008.78
2018-09-03T14:53:29.141Z,101010.80
2018-09-03T14:55:59.641Z,101016.42
2018-09-03T14:58:28.845Z,101007.59
2018-09-03T15:00:59.065Z,101004.82
2018-09-03T15:03:29.402Z,101003.47
2018-09-03T15:05:59.762Z,101006.11
2018-09-03T15:08:29.191Z,101012.94
2018-09-03T15:10:59.417Z,101004.09
2018-09-03T15:13:29.961Z,101011.98
2018-09-03T15:16:00.758Z,101007.25
2018-09-03T15:18:30.170Z,101016.84
2018-09-03T15:20:59.636Z,101011.33
2018-09-03T15:23:29.640Z,101021.95
2018-09-03T15:26:00.061Z,101015.19
2018-09-03T15:28:29.277Z,101018.99
2018-09-03T15:30:58.857Z,101013.13
2018-09-03T15:33:29.057Z,101019.80
2018-09-03T15:35:59.492Z,101012.70
2018-09-03T15:38:29.391Z,101014.24
2018-09-03T15:40:59.421Z,101005.86
2018-09-03T15:43:29.458Z,100997.33
2018-09-03T15:45:59.763Z,101004.28
2018-09-03T15:48:29.046Z,101007.70
2018-09-03T15:51:05.341Z,101005.59
2018-09-03T15:53:33.717Z,101004.48
2018-09-03T15:56:03.812Z,101007.75
2018-09-03T15:58:32.249Z,101009.31
2018-09-03T16:01:01.622Z,101004.93
2018-09-03T16:03:30.882Z,101002.42
2018-09-03T16:06:00.130Z,101003.19
2018-09-03T16:08:30.846Z,101004.37
2018-09-03T16:11:00.085Z,100998.73
2018-09-03T16:13:30.742Z,100999.26
2018-09-03T16:16:00.083Z,100997.51
2018-09-03T16:18:29.627Z,101001.02
2018-09-03T16:20:59.967Z,101002.25
2018-09-03T16:23:29.358Z,100999.45
2018-09-03T16:25:58.806Z,100996.86
2018-09-03T16:28:28.335Z,100996.23
2018-09-03T16:30:58.745Z,100996.37
2018-09-03T16:33:28.843Z,100992.95
2018-09-03T16:35:57.960Z,100998.13
2018-09-03T16:38:26.943Z,100994.39
2018-09-03T16:40:55.278Z,100992.65
2018-09-03T16:43:23.605Z,100994.19
2018-09-03T16:45:53.281Z,100997.92
2018-09-03T16:48:22.601Z,100989.45
2018-09-03T16:50:52.017Z,100996.37
2018-09-03T16:53:21.882Z,100990.58
2018-09-03T16:55:51.671Z,100990.64
2018-09-03T16:58:21.113Z,100977.83
2018-09-03T17:00:50.721Z,100987.10
2018-09-03T17:03:19.683Z,100990.57
2018-09-03T17:05:48.389Z,100988.14
2018-09-03T17:08:17.816Z,100991.48
2018-09-03T17:10:46.157Z,100986.30
2018-09-03T17:13:14.484Z,100988.25
2018-09-03T17:15:42.857Z,100989.48
2018-09-03T17:18:11.190Z,100985.23
2018-09-03T17:20:39.546Z,100984.42
2018-09-03T17:23:07.874Z,100986.74
2018-09-03T17:25:36.247Z,100987.28
2018-09-03T17:28:04.617Z,100988.55
2018-09-03T17:30:32.957Z,100977.69
2018-09-03T17:33:02.101Z,100978.28
2018-09-03T17:35:30.482Z,100984.39
2018-09-03T17:38:03.370Z,100993.84
2018-09-03T17:40:31.769Z,100996.73
2018-09-03T17:43:00.366Z,100991.45
2018-09-03T17:45:29.682Z,101000.69
2018-09-03T17:47:58.905Z,100995.88
2018-09-03T17:50:29.152Z,101008.38
2018-09-03T17:52:58.031Z,100999.02
2018-09-03T17:55:26.431Z,101000.52
2018-09-03T17:57:54.770Z,100998.77
2018-09-03T18:00:24.408Z,101001.17
2018-09-03T18:02:53.279Z,101002.30
2018-09-03T18:05:23.242Z,101001.30
2018-09-03T18:07:53.483Z,101001.36
2018-09-03T18:10:23.748Z,101006.44
2018-09-03T18:12:53.505Z,101012.55
2018-09-03T18:15:23.866Z,101013.52
2018-09-03T18:17:52.977Z,101017.68
2018-09-03T18:20:22.321Z,101016.08
2018-09-03T18:22:52.164Z,101018.80
2018-09-03T18:25:21.534Z,101013.97
2018-09-03T18:27:50.458Z,101021.48
2018-09-03T18:30:19.983Z,101020.61
2018-09-03T18:32:48.269Z,101016.89
2018-09-03T18:35:16.717Z,101023.13
2018-09-03T18:37:45.157Z,101021.62
2018-09-03T18:40:13.497Z,101024.52
2018-09-03T18:42:42.822Z,101015.99
2018-09-03T18:45:12.081Z,101012.83
2018-09-03T18:47:40.485Z,101018.80
2018-09-03T18:50:10.498Z,101019.05
2018-09-03T18:52:39.038Z,101014.90
2018-09-03T18:55:07.361Z,101019.45
2018-09-03T18:57:35.697Z,101019.45
2018-09-03T19:00:04.761Z,101022.27
2018-09-03T19:02:33.066Z,101025.42
2018-09-03T19:05:02.310Z,101025.05
2018-09-03T19:07:30.705Z,101024.63
2018-09-03T19:09:59.965Z,101028.97
2018-09-03T19:12:29.378Z,101034.66
2018-09-03T19:14:58.586Z,101030.45
2018-09-03T19:17:28.108Z,101028.84
2018-09-03T19:19:59.953Z,101030.77
2018-09-03T19:22:28.912Z,101034.39
2018-09-03T19:24:59.641Z,101024.35
2018-09-03T19:27:29.143Z,101027.56
2018-09-03T19:29:57.553Z,101031.52
2018-09-03T19:32:25.881Z,101040.14
2018-09-03T19:34:54.313Z,101035.84
2018-09-03T19:37:22.943Z,101032.16
2018-09-03T19:39:52.349Z,101029.85
2018-09-03T19:42:21.853Z,101035.62
2018-09-03T19:44:51.074Z,101034.23
2018-09-03T19:47:19.410Z,101030.05
2018-09-03T19:49:48.659Z,101027.13
2018-09-03T19:52:16.996Z,101024.92
2018-09-03T19:54:45.344Z,101031.05
2018-09-03T19:57:13.788Z,101027.89
2018-09-03T19:59:42.123Z,101026.09
2018-09-03T20:02:10.479Z,101030.77
2018-09-03T20:04:43.360Z,101026.15
2018-09-03T20:07:11.877Z,101028.48
2018-09-03T20:09:40.333Z,101026.13
2018-09-03T20:12:08.673Z,101022.09
2018-09-03T20:14:38.024Z,101029.16
2018-09-03T20:17:06.447Z,101029.18
2018-09-03T20:19:34.749Z,101025.58
2018-09-03T20:22:03.186Z,101034.55
2018-09-03T20:24:32.599Z,101027.27
2018-09-03T20:27:00.947Z,101033.64
2018-09-03T20:29:30.157Z,101035.11
2018-09-03T20:31:59.476Z,101036.69
2018-09-03T20:34:29.624Z,101038.00
2018-09-03T20:36:58.921Z,101029.34
2018-09-03T20:39:28.636Z,101025.40
2018-09-03T20:41:58.154Z,101022.73
2018-09-03T20:44:26.654Z,101025.09
2018-09-03T20:46:56.002Z,101028.08
2018-09-03T20:49:25.449Z,101034.08
2018-09-03T20:51:54.625Z,101023.44
2018-09-03T20:54:23.016Z,101025.59
2018-09-03T20:56:52.361Z,101031.11
2018-09-03T20:59:21.190Z,101033.44
2018-09-03T21:01:50.702Z,101031.09
2018-09-03T21:04:19.764Z,101029.11
2018-09-03T21:06:48.727Z,101024.46
2018-09-03T21:09:17.962Z,101018.16
2018-09-03T21:11:46.611Z,101020.64
2018-09-03T21:14:14.969Z,101013.80
2018-09-03T21:16:43.321Z,101015.45
2018-09-03T21:19:12.557Z,101011.92
2018-09-03T21:21:40.908Z,101013.29
2018-09-03T21:24:09.299Z,101016.92
2018-09-03T21:26:37.638Z,101017.23
2018-09-03T21:29:06.000Z,101017.38
2018-09-03T21:31:34.348Z,101012.38
2018-09-03T21:34:03.545Z,101009.86
2018-09-03T21:36:34.043Z,101007.69
2018-09-03T21:39:02.466Z,101012.31
2018-09-03T21:41:30.789Z,101008.52
2018-09-03T21:44:00.389Z,101006.65
2018-09-03T21:46:30.987Z,101002.98
2018-09-03T21:48:59.857Z,101003.87
2018-09-03T21:51:30.702Z,101003.63
2018-09-03T21:54:01.653Z,101007.56
2018-09-03T21:56:35.016Z,101005.23
2018-09-03T21:59:07.629Z,101001.92
2018-09-03T22:01:36.688Z,101002.58
2018-09-03T22:04:05.631Z,101002.11
2018-09-03T22:06:34.978Z,101003.41
2018-09-03T22:09:08.204Z,101000.05
2018-09-03T22:11:38.356Z,101001.14
2018-09-03T22:14:07.696Z,101000.91
2018-09-03T22:16:40.220Z,101004.08
2018-09-03T22:19:08.641Z,101001.00
2018-09-03T22:21:37.006Z,100999.33
2018-09-03T22:24:05.357Z,101004.00
2018-09-03T22:26:33.746Z,101006.81
2018-09-03T22:29:02.152Z,101001.27
2018-09-03T22:31:30.954Z,101003.57
2018-09-03T22:33:59.627Z,100999.25
2018-09-03T22:36:30.316Z,100998.27
2018-09-03T22:39:01.184Z,101010.77
2018-09-03T22:41:30.727Z,101006.65
2018-09-03T22:43:59.945Z,101004.17
2018-09-03T22:46:29.712Z,101004.19
2018-09-03T22:49:00.408Z,101004.52
2018-09-03T22:51:29.132Z,101007.84
2018-09-03T22:53:58.233Z,101009.14
2018-09-03T22:56:26.628Z,101005.03
2018-09-03T22:58:55.846Z,101012.20
2018-09-03T23:01:25.144Z,101014.77
2018-09-03T23:03:53.491Z,101005.49
2018-09-03T23:06:22.949Z,101010.07
2018-09-03T23:08:53.161Z,101015.52
2018-09-03T23:11:22.089Z,101009.87
2018-09-03T23:13:51.121Z,101009.53
2018-09-03T23:16:19.465Z,101010.64
2018-09-03T23:18:47.812Z,101005.59
2018-09-03T23:21:16.232Z,101008.83
2018-09-03T23:23:45.438Z,101003.20
2018-09-03T23:26:13.776Z,100997.91
2018-09-03T23:28:42.118Z,100994.97
2018-09-03T23:31:10.452Z,100993.30
2018-09-03T23:33:38.801Z,100996.42
2018-09-03T23:36:07.208Z,100995.45
2018-09-03T23:38:35.548Z,100998.12
2018-09-03T23:41:03.883Z,100984.02
2018-09-03T23:43:32.225Z,100982.53
2018-09-03T23:46:00.558Z,100984.12
2018-09-03T23:48:29.611Z,100989.14
2018-09-03T23:50:58.632Z,100986.44
2018-09-03T23:53:28.247Z,100979.56
2018-09-03T23:55:56.668Z,100981.15
2018-09-03T23:58:26.078Z,100984.50
